sensor_id;sensor_type;location;lat;lon;timestamp;temperature;humidity
15386;DHT22;7791;47.246;9.648;2023-10-13T00:01:28;12.10;99.90
15386;DHT22;7791;47.246;9.648;2023-10-13T00:03:55;12.00;99.90
15386;DHT22;7791;47.246;9.648;2023-10-13T00:06:23;11.80;99.90
15386;DHT22;7791;47.246;9.648;2023-10-13T00:09:05;11.60;99.90
15386;DHT22;7791;47.246;9.648;2023-10-13T00:11:38;11.60;99.90
15386;DHT22;7791;47.246;9.648;2023-10-13T00:14:27;11.50;99.90
15386;DHT22;7791;47.246;9.648;2023-10-13T00:20:09;11.60;99.90
15386;DHT22;7791;47.246;9.648;2023-10-13T00:22:50;11.50;99.90
15386;DHT22;7791;47.246;9.648;2023-10-13T00:25:30;11.60;99.90
15386;DHT22;7791;47.246;9.648;2023-10-13T00:28:14;11.70;99.90
15386;DHT22;7791;47.246;9.648;2023-10-13T00:30:44;11.80;99.90
15386;DHT22;7791;47.246;9.648;2023-10-13T00:33:30;11.80;99.90
15386;DHT22;7791;47.246;9.648;2023-10-13T00:36:01;12.00;99.90
15386;DHT22;7791;47.246;9.648;2023-10-13T00:41:19;12.00;99.90
15386;DHT22;7791;47.246;9.648;2023-10-13T00:44:23;12.10;99.90
15386;DHT22;7791;47.246;9.648;2023-10-13T00:49:51;12.20;99.90
15386;DHT22;7791;47.246;9.648;2023-10-13T00:52:37;11.80;99.90
15386;DHT22;7791;47.246;9.648;2023-10-13T00:55:04;11.60;99.90
15386;DHT22;7791;47.246;9.648;2023-10-13T00:57:30;11.50;99.90
15386;DHT22;7791;47.246;9.648;2023-10-13T00:59:57;11.50;99.90
15386;DHT22;7791;47.246;9.648;2023-10-13T01:02:36;11.40;99.90
15386;DHT22;7791;47.246;9.648;2023-10-13T01:05:09;11.40;99.90
15386;DHT22;7791;47.246;9.648;2023-10-13T01:07:44;11.40;99.90
15386;DHT22;7791;47.246;9.648;2023-10-13T01:10:21;11.30;99.90
15386;DHT22;7791;47.246;9.648;2023-10-13T01:15:39;11.10;99.90
15386;DHT22;7791;47.246;9.648;2023-10-13T01:18:27;11.00;99.90
15386;DHT22;7791;47.246;9.648;2023-10-13T01:21:12;11.00;99.90
15386;DHT22;7791;47.246;9.648;2023-10-13T01:24:00;11.00;99.90
15386;DHT22;7791;47.246;9.648;2023-10-13T01:26:36;11.10;99.90
15386;DHT22;7791;47.246;9.648;2023-10-13T01:29:16;11.10;99.90
15386;DHT22;7791;47.246;9.648;2023-10-13T01:32:02;11.10;99.90
15386;DHT22;7791;47.246;9.648;2023-10-13T01:34:52;10.90;99.90
15386;DHT22;7791;47.246;9.648;2023-10-13T01:37:24;10.90;99.90
15386;DHT22;7791;47.246;9.648;2023-10-13T01:40:08;10.80;99.90
15386;DHT22;7791;47.246;9.648;2023-10-13T01:42:34;10.70;99.90
15386;DHT22;7791;47.246;9.648;2023-10-13T01:45:00;10.60;99.90
15386;DHT22;7791;47.246;9.648;2023-10-13T01:47:48;10.60;99.90
15386;DHT22;7791;47.246;9.648;2023-10-13T01:50:27;10.60;99.90
15386;DHT22;7791;47.246;9.648;2023-10-13T01:53:19;10.60;99.90
15386;DHT22;7791;47.246;9.648;2023-10-13T01:55:54;10.50;99.90
15386;DHT22;7791;47.246;9.648;2023-10-13T01:58:39;10.50;99.90
15386;DHT22;7791;47.246;9.648;2023-10-13T02:01:16;10.50;99.90
15386;DHT22;7791;47.246;9.648;2023-10-13T02:06:30;10.60;99.90
15386;DHT22;7791;47.246;9.648;2023-10-13T02:09:18;10.50;99.90
15386;DHT22;7791;47.246;9.648;2023-10-13T02:12:07;10.60;99.90
15386;DHT22;7791;47.246;9.648;2023-10-13T02:14:51;10.70;99.90
15386;DHT22;7791;47.246;9.648;2023-10-13T02:17:17;10.60;99.90
15386;DHT22;7791;47.246;9.648;2023-10-13T02:19:43;10.70;99.90
15386;DHT22;7791;47.246;9.648;2023-10-13T02:22:32;10.70;99.90
15386;DHT22;7791;47.246;9.648;2023-10-13T02:25:03;10.70;99.90
15386;DHT22;7791;47.246;9.648;2023-10-13T02:27:44;10.80;99.90
15386;DHT22;7791;47.246;9.648;2023-10-13T02:30:17;11.00;99.90
15386;DHT22;7791;47.246;9.648;2023-10-13T02:32:52;11.00;99.90
15386;DHT22;7791;47.246;9.648;2023-10-13T02:35:18;10.90;99.90
15386;DHT22;7791;47.246;9.648;2023-10-13T02:38:03;10.70;99.90
15386;DHT22;7791;47.246;9.648;2023-10-13T02:40:54;10.70;99.90
15386;DHT22;7791;47.246;9.648;2023-10-13T02:43:32;10.70;99.90
15386;DHT22;7791;47.246;9.648;2023-10-13T02:46:11;10.90;99.90
15386;DHT22;7791;47.246;9.648;2023-10-13T02:48:59;11.00;99.90
15386;DHT22;7791;47.246;9.648;2023-10-13T02:51:38;11.00;99.90
15386;DHT22;7791;47.246;9.648;2023-10-13T02:54:14;11.00;99.90
15386;DHT22;7791;47.246;9.648;2023-10-13T02:59:44;11.00;99.90
15386;DHT22;7791;47.246;9.648;2023-10-13T03:02:27;11.10;99.90
15386;DHT22;7791;47.246;9.648;2023-10-13T03:05:06;11.00;99.90
15386;DHT22;7791;47.246;9.648;2023-10-13T03:10:55;10.90;99.90
15386;DHT22;7791;47.246;9.648;2023-10-13T03:13:28;10.80;99.90
15386;DHT22;7791;47.246;9.648;2023-10-13T03:16:01;10.60;99.90
15386;DHT22;7791;47.246;9.648;2023-10-13T03:21:32;10.40;99.90
15386;DHT22;7791;47.246;9.648;2023-10-13T03:24:07;10.30;99.90
15386;DHT22;7791;47.246;9.648;2023-10-13T03:26:41;10.20;99.90
15386;DHT22;7791;47.246;9.648;2023-10-13T03:32:01;10.10;99.90
15386;DHT22;7791;47.246;9.648;2023-10-13T03:34:37;10.10;99.90
15386;DHT22;7791;47.246;9.648;2023-10-13T03:37:12;10.00;99.90
15386;DHT22;7791;47.246;9.648;2023-10-13T03:39:50;9.90;99.90
15386;DHT22;7791;47.246;9.648;2023-10-13T03:42:31;9.90;99.90
15386;DHT22;7791;47.246;9.648;2023-10-13T03:48:01;9.60;99.90
15386;DHT22;7791;47.246;9.648;2023-10-13T03:50:34;9.50;99.90
15386;DHT22;7791;47.246;9.648;2023-10-13T03:53:21;9.40;99.90
15386;DHT22;7791;47.246;9.648;2023-10-13T03:56:05;9.40;99.90
15386;DHT22;7791;47.246;9.648;2023-10-13T03:58:37;9.50;99.90
15386;DHT22;7791;47.246;9.648;2023-10-13T04:01:18;9.50;99.90
15386;DHT22;7791;47.246;9.648;2023-10-13T04:09:57;9.30;99.90
15386;DHT22;7791;47.246;9.648;2023-10-13T04:12:48;9.20;99.90
15386;DHT22;7791;47.246;9.648;2023-10-13T04:15:14;9.20;99.90
15386;DHT22;7791;47.246;9.648;2023-10-13T04:17:40;9.20;99.90
15386;DHT22;7791;47.246;9.648;2023-10-13T04:20:23;9.20;99.90
15386;DHT22;7791;47.246;9.648;2023-10-13T04:23:01;9.20;99.90
15386;DHT22;7791;47.246;9.648;2023-10-13T04:25:48;9.20;99.90
15386;DHT22;7791;47.246;9.648;2023-10-13T04:28:27;9.10;99.90
15386;DHT22;7791;47.246;9.648;2023-10-13T04:31:07;9.00;99.90
15386;DHT22;7791;47.246;9.648;2023-10-13T04:36:50;8.90;99.90
15386;DHT22;7791;47.246;9.648;2023-10-13T04:39:35;8.70;99.90
15386;DHT22;7791;47.246;9.648;2023-10-13T04:42:20;8.70;99.90
15386;DHT22;7791;47.246;9.648;2023-10-13T04:48:00;8.70;99.90
15386;DHT22;7791;47.246;9.648;2023-10-13T04:50:37;8.70;99.90
15386;DHT22;7791;47.246;9.648;2023-10-13T04:53:17;8.70;99.90
15386;DHT22;7791;47.246;9.648;2023-10-13T04:55:59;8.70;99.90
15386;DHT22;7791;47.246;9.648;2023-10-13T04:58:31;8.70;99.90
15386;DHT22;7791;47.246;9.648;2023-10-13T05:01:16;8.80;99.90
15386;DHT22;7791;47.246;9.648;2023-10-13T05:03:49;8.90;99.90
15386;DHT22;7791;47.246;9.648;2023-10-13T05:06:35;8.90;99.90
15386;DHT22;7791;47.246;9.648;2023-10-13T05:09:14;8.90;99.90
15386;DHT22;7791;47.246;9.648;2023-10-13T05:11:53;8.90;99.90
15386;DHT22;7791;47.246;9.648;2023-10-13T05:14:50;8.90;99.90
15386;DHT22;7791;47.246;9.648;2023-10-13T05:17:38;9.20;99.90
15386;DHT22;7791;47.246;9.648;2023-10-13T05:20:15;9.70;99.90
15386;DHT22;7791;47.246;9.648;2023-10-13T05:22:44;10.10;99.90
15386;DHT22;7791;47.246;9.648;2023-10-13T05:25:22;10.50;99.90
15386;DHT22;7791;47.246;9.648;2023-10-13T05:28:01;10.90;99.90
15386;DHT22;7791;47.246;9.648;2023-10-13T05:33:26;11.20;99.90
15386;DHT22;7791;47.246;9.648;2023-10-13T05:35:59;11.30;99.90
15386;DHT22;7791;47.246;9.648;2023-10-13T05:38:34;11.40;99.90
15386;DHT22;7791;47.246;9.648;2023-10-13T05:41:25;11.20;99.90
15386;DHT22;7791;47.246;9.648;2023-10-13T05:44:14;11.00;99.90
15386;DHT22;7791;47.246;9.648;2023-10-13T05:46:51;10.90;99.90
15386;DHT22;7791;47.246;9.648;2023-10-13T05:49:54;10.70;99.90
15386;DHT22;7791;47.246;9.648;2023-10-13T05:52:33;10.50;99.90
15386;DHT22;7791;47.246;9.648;2023-10-13T05:55:01;10.50;99.90
15386;DHT22;7791;47.246;9.648;2023-10-13T05:57:42;10.40;99.90
15386;DHT22;7791;47.246;9.648;2023-10-13T06:00:28;10.40;99.90
15386;DHT22;7791;47.246;9.648;2023-10-13T06:03:09;10.40;99.90
15386;DHT22;7791;47.246;9.648;2023-10-13T06:06:00;10.40;99.90
15386;DHT22;7791;47.246;9.648;2023-10-13T06:08:54;10.40;99.90
15386;DHT22;7791;47.246;9.648;2023-10-13T06:11:30;10.40;99.90
15386;DHT22;7791;47.246;9.648;2023-10-13T06:16:51;10.10;99.90
15386;DHT22;7791;47.246;9.648;2023-10-13T06:19:17;10.20;99.90
15386;DHT22;7791;47.246;9.648;2023-10-13T06:24:51;10.30;99.90
15386;DHT22;7791;47.246;9.648;2023-10-13T06:27:46;10.40;99.90
15386;DHT22;7791;47.246;9.648;2023-10-13T06:30:52;10.40;99.90
15386;DHT22;7791;47.246;9.648;2023-10-13T06:36:16;10.10;99.90
15386;DHT22;7791;47.246;9.648;2023-10-13T06:39:03;10.20;99.90
15386;DHT22;7791;47.246;9.648;2023-10-13T06:41:48;10.30;99.90
15386;DHT22;7791;47.246;9.648;2023-10-13T06:44:20;10.40;99.90
15386;DHT22;7791;47.246;9.648;2023-10-13T06:46:54;10.40;99.90
15386;DHT22;7791;47.246;9.648;2023-10-13T06:49:41;10.50;99.90
15386;DHT22;7791;47.246;9.648;2023-10-13T06:52:40;10.40;99.90
15386;DHT22;7791;47.246;9.648;2023-10-13T06:55:14;10.60;99.90
15386;DHT22;7791;47.246;9.648;2023-10-13T06:58:08;10.70;99.90
15386;DHT22;7791;47.246;9.648;2023-10-13T07:00:48;10.80;99.90
15386;DHT22;7791;47.246;9.648;2023-10-13T07:03:18;10.90;99.90
15386;DHT22;7791;47.246;9.648;2023-10-13T07:06:08;11.00;99.90
15386;DHT22;7791;47.246;9.648;2023-10-13T07:08:44;11.20;99.90
15386;DHT22;7791;47.246;9.648;2023-10-13T07:11:30;11.90;99.90
15386;DHT22;7791;47.246;9.648;2023-10-13T07:14:02;13.00;99.90
15386;DHT22;7791;47.246;9.648;2023-10-13T07:16:54;14.70;99.90
15386;DHT22;7791;47.246;9.648;2023-10-13T07:19:34;16.30;99.90
15386;DHT22;7791;47.246;9.648;2023-10-13T07:22:28;17.70;99.90
15386;DHT22;7791;47.246;9.648;2023-10-13T07:24:57;18.10;99.90
15386;DHT22;7791;47.246;9.648;2023-10-13T07:27:29;18.00;99.90
15386;DHT22;7791;47.246;9.648;2023-10-13T07:30:01;17.60;99.90
15386;DHT22;7791;47.246;9.648;2023-10-13T07:32:46;17.40;99.90
15386;DHT22;7791;47.246;9.648;2023-10-13T07:35:58;18.50;99.90
15386;DHT22;7791;47.246;9.648;2023-10-13T07:38:28;19.80;99.90
15386;DHT22;7791;47.246;9.648;2023-10-13T07:44:12;21.80;99.90
15386;DHT22;7791;47.246;9.648;2023-10-13T07:47:09;21.10;99.90
15386;DHT22;7791;47.246;9.648;2023-10-13T07:49:45;22.60;99.50
15386;DHT22;7791;47.246;9.648;2023-10-13T07:52:11;23.50;97.90
15386;DHT22;7791;47.246;9.648;2023-10-13T07:55:03;24.40;95.80
15386;DHT22;7791;47.246;9.648;2023-10-13T07:57:48;25.20;94.70
15386;DHT22;7791;47.246;9.648;2023-10-13T08:03:07;26.00;92.90
15386;DHT22;7791;47.246;9.648;2023-10-13T08:06:03;25.60;92.70
15386;DHT22;7791;47.246;9.648;2023-10-13T08:08:48;25.90;92.20
15386;DHT22;7791;47.246;9.648;2023-10-13T08:11:24;26.00;91.40
15386;DHT22;7791;47.246;9.648;2023-10-13T08:13:54;26.20;91.20
15386;DHT22;7791;47.246;9.648;2023-10-13T08:16:46;26.60;90.30
15386;DHT22;7791;47.246;9.648;2023-10-13T08:19:23;26.30;89.70
15386;DHT22;7791;47.246;9.648;2023-10-13T08:22:04;26.60;90.10
15386;DHT22;7791;47.246;9.648;2023-10-13T08:24:47;27.00;88.40
15386;DHT22;7791;47.246;9.648;2023-10-13T08:27:32;26.90;86.10
15386;DHT22;7791;47.246;9.648;2023-10-13T08:30:03;26.90;87.60
15386;DHT22;7791;47.246;9.648;2023-10-13T08:32:44;27.10;86.10
15386;DHT22;7791;47.246;9.648;2023-10-13T08:35:25;26.80;85.50
15386;DHT22;7791;47.246;9.648;2023-10-13T08:38:00;26.40;87.30
15386;DHT22;7791;47.246;9.648;2023-10-13T08:40:36;27.10;87.40
15386;DHT22;7791;47.246;9.648;2023-10-13T08:43:16;27.60;86.70
15386;DHT22;7791;47.246;9.648;2023-10-13T08:45:43;28.70;84.50
15386;DHT22;7791;47.246;9.648;2023-10-13T08:48:10;29.40;81.90
15386;DHT22;7791;47.246;9.648;2023-10-13T08:50:37;29.10;80.50
15386;DHT22;7791;47.246;9.648;2023-10-13T08:53:03;29.00;80.80
15386;DHT22;7791;47.246;9.648;2023-10-13T08:55:56;29.20;80.50
15386;DHT22;7791;47.246;9.648;2023-10-13T08:58:33;29.50;79.30
15386;DHT22;7791;47.246;9.648;2023-10-13T09:01:12;30.10;80.50
15386;DHT22;7791;47.246;9.648;2023-10-13T09:03:52;30.10;80.70
15386;DHT22;7791;47.246;9.648;2023-10-13T09:06:23;30.20;79.50
15386;DHT22;7791;47.246;9.648;2023-10-13T09:08:52;30.80;78.40
15386;DHT22;7791;47.246;9.648;2023-10-13T09:11:37;31.10;78.70
15386;DHT22;7791;47.246;9.648;2023-10-13T09:14:19;31.40;77.20
15386;DHT22;7791;47.246;9.648;2023-10-13T09:17:05;31.80;76.20
15386;DHT22;7791;47.246;9.648;2023-10-13T09:22:57;32.10;72.70
15386;DHT22;7791;47.246;9.648;2023-10-13T09:25:40;31.90;71.50
15386;DHT22;7791;47.246;9.648;2023-10-13T09:28:29;32.30;71.50
15386;DHT22;7791;47.246;9.648;2023-10-13T09:31:13;32.80;69.10
15386;DHT22;7791;47.246;9.648;2023-10-13T09:33:59;32.50;70.30
15386;DHT22;7791;47.246;9.648;2023-10-13T09:36:31;32.90;71.60
15386;DHT22;7791;47.246;9.648;2023-10-13T09:39:13;32.90;69.10
15386;DHT22;7791;47.246;9.648;2023-10-13T09:42:01;33.20;67.40
15386;DHT22;7791;47.246;9.648;2023-10-13T09:44:30;33.60;67.10
15386;DHT22;7791;47.246;9.648;2023-10-13T09:47:03;33.80;67.70
15386;DHT22;7791;47.246;9.648;2023-10-13T09:52:22;33.70;64.00
15386;DHT22;7791;47.246;9.648;2023-10-13T10:00:41;33.80;62.50
15386;DHT22;7791;47.246;9.648;2023-10-13T10:03:20;33.40;61.10
15386;DHT22;7791;47.246;9.648;2023-10-13T10:05:58;33.10;62.60
15386;DHT22;7791;47.246;9.648;2023-10-13T10:14:56;34.50;60.60
15386;DHT22;7791;47.246;9.648;2023-10-13T10:18:17;35.10;63.10
15386;DHT22;7791;47.246;9.648;2023-10-13T10:20:36;35.30;61.00
15386;DHT22;7791;47.246;9.648;2023-10-13T10:23:21;35.20;58.70
15386;DHT22;7791;47.246;9.648;2023-10-13T10:25:56;34.80;59.30
15386;DHT22;7791;47.246;9.648;2023-10-13T10:28:49;34.80;60.80
15386;DHT22;7791;47.246;9.648;2023-10-13T10:31:21;34.10;58.10
15386;DHT22;7791;47.246;9.648;2023-10-13T10:33:56;33.90;59.20
15386;DHT22;7791;47.246;9.648;2023-10-13T10:36:37;33.30;58.80
15386;DHT22;7791;47.246;9.648;2023-10-13T10:39:14;31.70;62.50
15386;DHT22;7791;47.246;9.648;2023-10-13T10:41:44;30.50;64.90
15386;DHT22;7791;47.246;9.648;2023-10-13T10:44:23;31.00;63.90
15386;DHT22;7791;47.246;9.648;2023-10-13T10:47:00;31.90;62.30
15386;DHT22;7791;47.246;9.648;2023-10-13T10:52:41;33.30;60.70
15386;DHT22;7791;47.246;9.648;2023-10-13T10:55:22;33.70;59.90
15386;DHT22;7791;47.246;9.648;2023-10-13T10:58:06;33.60;60.70
15386;DHT22;7791;47.246;9.648;2023-10-13T11:00:46;33.60;60.10
15386;DHT22;7791;47.246;9.648;2023-10-13T11:03:22;32.20;62.40
15386;DHT22;7791;47.246;9.648;2023-10-13T11:08:43;31.20;66.10
15386;DHT22;7791;47.246;9.648;2023-10-13T11:11:12;30.20;66.50
15386;DHT22;7791;47.246;9.648;2023-10-13T11:13:55;30.60;68.90
15386;DHT22;7791;47.246;9.648;2023-10-13T11:16:31;31.60;64.30
15386;DHT22;7791;47.246;9.648;2023-10-13T11:19:10;31.00;63.40
15386;DHT22;7791;47.246;9.648;2023-10-13T11:21:48;29.60;66.50
15386;DHT22;7791;47.246;9.648;2023-10-13T11:24:30;29.20;68.60
15386;DHT22;7791;47.246;9.648;2023-10-13T11:27:18;29.20;67.80
15386;DHT22;7791;47.246;9.648;2023-10-13T11:29:55;29.00;64.30
15386;DHT22;7791;47.246;9.648;2023-10-13T11:32:35;28.90;68.50
15386;DHT22;7791;47.246;9.648;2023-10-13T11:35:04;28.70;68.70
15386;DHT22;7791;47.246;9.648;2023-10-13T11:37:30;28.70;69.70
15386;DHT22;7791;47.246;9.648;2023-10-13T11:39:57;28.60;70.50
15386;DHT22;7791;47.246;9.648;2023-10-13T11:42:44;28.70;70.30
15386;DHT22;7791;47.246;9.648;2023-10-13T11:45:38;28.90;69.40
15386;DHT22;7791;47.246;9.648;2023-10-13T11:48:29;29.10;71.00
15386;DHT22;7791;47.246;9.648;2023-10-13T11:51:04;29.40;71.70
15386;DHT22;7791;47.246;9.648;2023-10-13T11:53:49;29.40;67.80
15386;DHT22;7791;47.246;9.648;2023-10-13T11:56:37;29.50;69.10
15386;DHT22;7791;47.246;9.648;2023-10-13T11:59:14;29.60;68.20
15386;DHT22;7791;47.246;9.648;2023-10-13T12:01:52;29.80;67.80
15386;DHT22;7791;47.246;9.648;2023-10-13T12:04:26;30.70;65.30
15386;DHT22;7791;47.246;9.648;2023-10-13T12:06:52;30.80;63.80
15386;DHT22;7791;47.246;9.648;2023-10-13T12:09:18;31.00;65.90
15386;DHT22;7791;47.246;9.648;2023-10-13T12:15:01;32.50;63.60
15386;DHT22;7791;47.246;9.648;2023-10-13T12:17:32;31.90;62.80
15386;DHT22;7791;47.246;9.648;2023-10-13T12:20:21;31.00;65.00
15386;DHT22;7791;47.246;9.648;2023-10-13T12:22:56;30.80;65.40
15386;DHT22;7791;47.246;9.648;2023-10-13T12:25:32;30.40;65.40
15386;DHT22;7791;47.246;9.648;2023-10-13T12:28:06;30.00;63.90
15386;DHT22;7791;47.246;9.648;2023-10-13T12:30:42;30.50;63.20
15386;DHT22;7791;47.246;9.648;2023-10-13T12:36:38;30.40;65.80
15386;DHT22;7791;47.246;9.648;2023-10-13T12:39:07;29.90;63.90
15386;DHT22;7791;47.246;9.648;2023-10-13T12:41:43;29.70;65.80
15386;DHT22;7791;47.246;9.648;2023-10-13T12:44:19;29.30;66.20
15386;DHT22;7791;47.246;9.648;2023-10-13T12:47:24;29.10;67.60
15386;DHT22;7791;47.246;9.648;2023-10-13T12:50:04;29.20;66.70
15386;DHT22;7791;47.246;9.648;2023-10-13T12:52:53;29.10;67.70
15386;DHT22;7791;47.246;9.648;2023-10-13T12:55:58;29.10;67.60
15386;DHT22;7791;47.246;9.648;2023-10-13T12:58:30;28.90;69.40
15386;DHT22;7791;47.246;9.648;2023-10-13T13:01:03;28.90;69.40
15386;DHT22;7791;47.246;9.648;2023-10-13T13:03:52;29.00;68.50
15386;DHT22;7791;47.246;9.648;2023-10-13T13:06:27;29.20;68.20
15386;DHT22;7791;47.246;9.648;2023-10-13T13:09:00;29.10;68.50
15386;DHT22;7791;47.246;9.648;2023-10-13T13:11:27;29.20;67.50
15386;DHT22;7791;47.246;9.648;2023-10-13T13:14:08;29.60;68.70
15386;DHT22;7791;47.246;9.648;2023-10-13T13:17:02;29.50;67.30
15386;DHT22;7791;47.246;9.648;2023-10-13T13:19:54;29.20;66.50
15386;DHT22;7791;47.246;9.648;2023-10-13T13:22:19;29.20;67.30
15386;DHT22;7791;47.246;9.648;2023-10-13T13:24:49;29.00;65.90
15386;DHT22;7791;47.246;9.648;2023-10-13T13:27:22;29.10;68.50
15386;DHT22;7791;47.246;9.648;2023-10-13T13:29:59;29.00;69.40
15386;DHT22;7791;47.246;9.648;2023-10-13T13:32:43;29.20;66.80
15386;DHT22;7791;47.246;9.648;2023-10-13T13:35:25;29.20;67.40
15386;DHT22;7791;47.246;9.648;2023-10-13T13:38:16;28.90;69.30
15386;DHT22;7791;47.246;9.648;2023-10-13T13:40:46;28.80;68.60
15386;DHT22;7791;47.246;9.648;2023-10-13T13:43:20;28.60;70.00
15386;DHT22;7791;47.246;9.648;2023-10-13T13:46:01;28.40;73.00
15386;DHT22;7791;47.246;9.648;2023-10-13T13:48:41;28.30;71.20
15386;DHT22;7791;47.246;9.648;2023-10-13T13:51:29;28.20;70.30
15386;DHT22;7791;47.246;9.648;2023-10-13T13:54:04;28.30;70.50
15386;DHT22;7791;47.246;9.648;2023-10-13T13:56:30;28.00;72.10
15386;DHT22;7791;47.246;9.648;2023-10-13T13:58:56;28.10;74.10
15386;DHT22;7791;47.246;9.648;2023-10-13T14:01:29;28.00;73.20
15386;DHT22;7791;47.246;9.648;2023-10-13T14:04:08;27.80;73.70
15386;DHT22;7791;47.246;9.648;2023-10-13T14:06:39;27.70;74.20
15386;DHT22;7791;47.246;9.648;2023-10-13T14:09:04;27.70;74.40
15386;DHT22;7791;47.246;9.648;2023-10-13T14:11:31;27.80;76.70
15386;DHT22;7791;47.246;9.648;2023-10-13T14:13:57;28.00;74.50
15386;DHT22;7791;47.246;9.648;2023-10-13T14:16:37;28.10;75.90
15386;DHT22;7791;47.246;9.648;2023-10-13T14:19:12;28.00;78.20
15386;DHT22;7791;47.246;9.648;2023-10-13T14:21:58;28.10;73.40
15386;DHT22;7791;47.246;9.648;2023-10-13T14:24:40;27.60;74.80
15386;DHT22;7791;47.246;9.648;2023-10-13T14:27:24;27.30;76.90
15386;DHT22;7791;47.246;9.648;2023-10-13T14:30:03;27.10;83.10
15386;DHT22;7791;47.246;9.648;2023-10-13T14:32:43;26.90;83.10
15386;DHT22;7791;47.246;9.648;2023-10-13T14:35:35;26.90;79.50
15386;DHT22;7791;47.246;9.648;2023-10-13T14:41:09;26.60;79.60
15386;DHT22;7791;47.246;9.648;2023-10-13T14:43:58;26.30;82.50
15386;DHT22;7791;47.246;9.648;2023-10-13T14:46:41;25.80;85.90
15386;DHT22;7791;47.246;9.648;2023-10-13T14:49:22;25.50;87.50
15386;DHT22;7791;47.246;9.648;2023-10-13T14:51:57;25.40;89.90
15386;DHT22;7791;47.246;9.648;2023-10-13T14:54:36;25.10;91.10
15386;DHT22;7791;47.246;9.648;2023-10-13T14:57:15;24.90;92.40
15386;DHT22;7791;47.246;9.648;2023-10-13T14:59:52;24.80;92.10
15386;DHT22;7791;47.246;9.648;2023-10-13T15:02:31;24.60;92.40
15386;DHT22;7791;47.246;9.648;2023-10-13T15:05:10;24.40;91.80
15386;DHT22;7791;47.246;9.648;2023-10-13T15:07:42;24.00;91.60
15386;DHT22;7791;47.246;9.648;2023-10-13T15:10:27;23.80;92.70
15386;DHT22;7791;47.246;9.648;2023-10-13T15:13:14;23.70;93.10
15386;DHT22;7791;47.246;9.648;2023-10-13T15:15:50;23.30;93.70
15386;DHT22;7791;47.246;9.648;2023-10-13T15:21:34;22.80;94.10
15386;DHT22;7791;47.246;9.648;2023-10-13T15:24:13;22.60;94.30
15386;DHT22;7791;47.246;9.648;2023-10-13T15:26:44;22.40;94.70
15386;DHT22;7791;47.246;9.648;2023-10-13T15:29:23;22.10;95.90
15386;DHT22;7791;47.246;9.648;2023-10-13T15:31:53;21.80;96.70
15386;DHT22;7791;47.246;9.648;2023-10-13T15:34:39;21.50;97.10
15386;DHT22;7791;47.246;9.648;2023-10-13T15:37:48;21.50;97.50
15386;DHT22;7791;47.246;9.648;2023-10-13T15:42:53;21.10;98.60
15386;DHT22;7791;47.246;9.648;2023-10-13T15:45:18;20.80;99.30
15386;DHT22;7791;47.246;9.648;2023-10-13T15:47:44;20.60;99.90
15386;DHT22;7791;47.246;9.648;2023-10-13T15:50:27;20.40;99.90
15386;DHT22;7791;47.246;9.648;2023-10-13T15:53:02;20.30;99.90
15386;DHT22;7791;47.246;9.648;2023-10-13T15:59:01;19.80;99.90
15386;DHT22;7791;47.246;9.648;2023-10-13T16:01:37;19.60;99.90
15386;DHT22;7791;47.246;9.648;2023-10-13T16:04:07;19.40;99.90
15386;DHT22;7791;47.246;9.648;2023-10-13T16:06:48;19.40;99.90
15386;DHT22;7791;47.246;9.648;2023-10-13T16:09:24;19.20;99.90
15386;DHT22;7791;47.246;9.648;2023-10-13T16:12:06;19.10;99.90
15386;DHT22;7791;47.246;9.648;2023-10-13T16:15:02;19.00;99.90
15386;DHT22;7791;47.246;9.648;2023-10-13T16:18:03;18.70;99.90
15386;DHT22;7791;47.246;9.648;2023-10-13T16:20:29;18.50;99.90
15386;DHT22;7791;47.246;9.648;2023-10-13T16:22:55;18.20;99.90
15386;DHT22;7791;47.246;9.648;2023-10-13T16:25:32;18.10;99.90
15386;DHT22;7791;47.246;9.648;2023-10-13T16:28:17;17.90;99.90
15386;DHT22;7791;47.246;9.648;2023-10-13T16:30:47;17.90;99.90
15386;DHT22;7791;47.246;9.648;2023-10-13T16:33:13;17.70;99.90
15386;DHT22;7791;47.246;9.648;2023-10-13T16:35:47;17.60;99.90
15386;DHT22;7791;47.246;9.648;2023-10-13T16:38:36;17.50;99.90
15386;DHT22;7791;47.246;9.648;2023-10-13T16:43:57;17.00;99.90
15386;DHT22;7791;47.246;9.648;2023-10-13T16:49:28;16.80;99.90
15386;DHT22;7791;47.246;9.648;2023-10-13T16:52:16;16.60;99.90
15386;DHT22;7791;47.246;9.648;2023-10-13T16:57:30;16.30;99.90
15386;DHT22;7791;47.246;9.648;2023-10-13T17:00:02;16.30;99.90
15386;DHT22;7791;47.246;9.648;2023-10-13T17:02:29;16.20;99.90
15386;DHT22;7791;47.246;9.648;2023-10-13T17:04:55;16.10;99.90
15386;DHT22;7791;47.246;9.648;2023-10-13T17:07:45;15.90;99.90
15386;DHT22;7791;47.246;9.648;2023-10-13T17:10:35;15.70;99.90
15386;DHT22;7791;47.246;9.648;2023-10-13T17:13:16;15.50;99.90
15386;DHT22;7791;47.246;9.648;2023-10-13T17:15:50;15.40;99.90
15386;DHT22;7791;47.246;9.648;2023-10-13T17:21:50;15.20;99.90
15386;DHT22;7791;47.246;9.648;2023-10-13T17:24:27;15.20;99.90
15386;DHT22;7791;47.246;9.648;2023-10-13T17:27:16;15.30;99.90
15386;DHT22;7791;47.246;9.648;2023-10-13T17:32:53;15.20;99.90
15386;DHT22;7791;47.246;9.648;2023-10-13T17:35:28;15.20;99.90
15386;DHT22;7791;47.246;9.648;2023-10-13T17:38:01;15.10;99.90
15386;DHT22;7791;47.246;9.648;2023-10-13T17:43:34;14.60;99.90
15386;DHT22;7791;47.246;9.648;2023-10-13T17:46:14;14.50;99.90
15386;DHT22;7791;47.246;9.648;2023-10-13T17:48:55;14.30;99.90
15386;DHT22;7791;47.246;9.648;2023-10-13T17:51:34;14.20;99.90
15386;DHT22;7791;47.246;9.648;2023-10-13T17:54:03;14.20;99.90
15386;DHT22;7791;47.246;9.648;2023-10-13T17:56:48;14.20;99.90
15386;DHT22;7791;47.246;9.648;2023-10-13T17:59:24;14.20;99.90
15386;DHT22;7791;47.246;9.648;2023-10-13T18:02:00;14.10;99.90
15386;DHT22;7791;47.246;9.648;2023-10-13T18:11:15;13.90;99.90
15386;DHT22;7791;47.246;9.648;2023-10-13T18:13:58;13.80;99.90
15386;DHT22;7791;47.246;9.648;2023-10-13T18:16:37;13.70;99.90
15386;DHT22;7791;47.246;9.648;2023-10-13T18:19:36;13.70;99.90
15386;DHT22;7791;47.246;9.648;2023-10-13T18:24:55;13.60;99.90
15386;DHT22;7791;47.246;9.648;2023-10-13T18:27:44;13.90;99.90
15386;DHT22;7791;47.246;9.648;2023-10-13T18:30:23;13.90;99.90
15386;DHT22;7791;47.246;9.648;2023-10-13T18:33:12;14.00;99.90
15386;DHT22;7791;47.246;9.648;2023-10-13T18:35:54;14.10;99.90
15386;DHT22;7791;47.246;9.648;2023-10-13T18:38:35;14.00;99.90
15386;DHT22;7791;47.246;9.648;2023-10-13T18:41:03;13.70;99.90
15386;DHT22;7791;47.246;9.648;2023-10-13T18:43:43;13.60;99.90
15386;DHT22;7791;47.246;9.648;2023-10-13T18:46:18;13.60;99.90
15386;DHT22;7791;47.246;9.648;2023-10-13T18:49:00;13.70;99.90
15386;DHT22;7791;47.246;9.648;2023-10-13T18:51:55;13.80;99.90
15386;DHT22;7791;47.246;9.648;2023-10-13T18:54:24;13.80;99.90
15386;DHT22;7791;47.246;9.648;2023-10-13T18:57:03;13.80;99.90
15386;DHT22;7791;47.246;9.648;2023-10-13T18:59:53;13.80;99.90
15386;DHT22;7791;47.246;9.648;2023-10-13T19:02:38;13.80;99.90
15386;DHT22;7791;47.246;9.648;2023-10-13T19:05:23;13.90;99.90
15386;DHT22;7791;47.246;9.648;2023-10-13T19:10:37;14.40;99.90
15386;DHT22;7791;47.246;9.648;2023-10-13T19:13:22;15.20;99.90